Time;durP1;ratioP1;P1;durP2;ratioP2;P2;SDS_P1;SDS_P2;PMS_P1;PMS_P2;Temp;Humidity;BMP_temperature;BMP_pressure;BME280_temperature;BME280_humidity;BME280_pressure;Samples;Min_cycle;Max_cycle;Signal;HPM_P1;HPM_P2
2023/04/02 07:01:29;;;;;;;2.50;1.93;;;6.90;99.90;8.30;101462.00;;;;6247917;23;20186;-72
2023/04/02 07:04:05;;;;;;;2.97;2.70;;;7.00;99.90;8.10;101496.00;;;;6221016;23;20163;-72
2023/04/02 07:06:51;;;;;;;5.13;2.53;;;6.90;99.90;8.20;101487.00;;;;6221192;23;20159;-72
2023/04/02 07:09:17;;;;;;;0.50;0.50;;;6.80;99.90;8.80;101501.00;;;;6246561;23;20156;-71
2023/04/02 07:11:43;;;;;;;4.00;2.43;;;6.90;99.90;7.80;101486.00;;;;6247645;22;20140;-71
2023/04/02 07:14:15;;;;;;;4.03;3.63;;;6.80;99.90;7.80;101511.00;;;;6247937;23;20149;-71
2023/04/02 07:16:42;;;;;;;2.63;1.27;;;6.90;99.90;8.00;101480.00;;;;6247578;22;20146;-71
2023/04/02 07:19:18;;;;;;;2.57;2.37;;;6.80;99.90;7.50;101516.00;;;;6246059;23;20149;-71
2023/04/02 07:21:44;;;;;;;2.67;2.20;;;6.60;99.90;7.80;101481.00;;;;6246454;23;20141;-71
2023/04/02 07:24:19;;;;;;;5.93;3.40;;;6.60;99.90;8.40;101520.00;;;;6220616;23;20243;-71
2023/04/02 07:26:54;;;;;;;1.53;1.43;;;6.80;99.90;8.50;101537.00;;;;6220972;23;20157;-71
2023/04/02 07:29:55;;;;;;;7.60;5.17;;;6.90;99.90;8.30;101548.00;;;;6245652;23;20169;-71
2023/04/02 07:32:38;;;;;;;5.17;4.77;;;6.90;99.90;7.60;101548.00;;;;6247923;22;20597;-71
2023/04/02 07:35:05;;;;;;;3.80;2.30;;;6.70;99.90;7.60;101563.00;;;;6245988;23;20223;-71
2023/04/02 07:37:34;;;;;;;8.80;6.03;;;6.60;99.90;7.20;101560.00;;;;6246241;23;20466;-71
2023/04/02 07:40:00;;;;;;;4.63;4.23;;;6.60;99.90;7.40;101561.00;;;;6247085;22;20173;-71
2023/04/02 07:42:30;;;;;;;3.50;3.20;;;6.60;99.90;8.00;101520.00;;;;6247229;23;20192;-71
2023/04/02 07:45:16;;;;;;;3.80;2.80;;;6.60;99.90;7.70;101557.00;;;;6245747;23;20146;-71
2023/04/02 07:47:51;;;;;;;2.97;2.23;;;6.70;99.90;7.70;101567.00;;;;6222692;23;20192;-71
2023/04/02 07:50:35;;;;;;;3.67;3.33;;;6.60;99.90;8.00;101550.00;;;;6222128;23;20156;-71
2023/04/02 07:53:33;;;;;;;2.23;2.07;;;6.70;99.90;9.10;101583.00;;;;6220707;23;20164;-71
2023/04/02 07:56:36;;;;;;;5.67;3.93;;;7.00;99.90;7.70;101578.00;;;;6245713;23;20140;-71
2023/04/02 07:59:21;;;;;;;1.47;1.37;;;7.00;99.90;8.60;101579.00;;;;6247433;22;20165;-71
2023/04/02 08:01:56;;;;;;;1.30;1.20;;;7.00;99.90;8.40;101566.00;;;;6224953;22;20544;-71
2023/04/02 08:04:41;;;;;;;4.10;3.70;;;7.00;99.90;7.70;101597.00;;;;6250073;22;20572;-71
2023/04/02 08:07:26;;;;;;;2.80;2.57;;;6.80;99.90;8.20;101593.00;;;;6250354;22;20148;-71
2023/04/02 08:10:11;;;;;;;1.73;1.17;;;6.80;99.90;8.10;101627.00;;;;6249759;22;20499;-71
2023/04/02 08:12:48;;;;;;;4.93;4.20;;;6.80;99.90;7.80;101620.00;;;;6249534;22;20484;-71
2023/04/02 08:15:15;;;;;;;5.90;4.07;;;6.80;99.90;7.20;101621.00;;;;6276449;22;20158;-71
2023/04/02 08:17:45;;;;;;;3.60;3.10;;;6.60;99.90;7.80;101627.00;;;;6224278;22;20220;-71
2023/04/02 08:20:40;;;;;;;6.60;3.57;;;6.60;99.90;7.90;101627.00;;;;6225015;22;20155;-72
2023/04/02 08:23:16;;;;;;;1.97;1.83;;;6.60;99.90;8.60;101635.00;;;;6276690;22;20176;-73
2023/04/02 08:25:44;;;;;;;2.63;2.43;;;6.80;99.90;9.00;101646.00;;;;6250446;22;20137;-74
2023/04/02 08:28:10;;;;;;;3.80;2.77;;;7.00;99.90;7.90;101641.00;;;;6249292;22;20162;-73
2023/04/02 08:30:39;;;;;;;2.53;2.33;;;6.90;99.90;7.70;101647.00;;;;6250060;22;20186;-73
2023/04/02 08:33:05;;;;;;;0.40;0.40;;;6.70;99.90;8.60;101651.00;;;;6250305;22;20141;-72
2023/04/02 08:35:32;;;;;;;3.90;3.53;;;6.90;99.90;8.10;101668.00;;;;6277277;22;20145;-72
2023/04/02 08:38:20;;;;;;;1.20;1.10;;;7.00;99.90;8.40;101666.00;;;;6250785;22;20148;-72
2023/04/02 08:40:55;;;;;;;2.83;2.63;;;6.80;99.90;7.90;101670.00;;;;6250523;22;20455;-72
2023/04/02 08:44:01;;;;;;;11.20;2.63;;;6.80;99.90;8.20;101628.00;;;;6250318;22;20201;-72
2023/04/02 08:46:47;;;;;;;0.77;0.77;;;6.70;99.90;8.00;101692.00;;;;6249033;22;20163;-72
2023/04/02 08:49:25;;;;;;;4.07;3.13;;;6.70;99.90;7.90;101645.00;;;;6248563;22;20157;-73
2023/04/02 08:52:18;;;;;;;2.37;2.20;;;6.70;99.90;8.00;101690.00;;;;6250578;22;20153;-72
2023/04/02 08:55:26;;;;;;;5.80;3.70;;;6.70;99.90;7.50;101698.00;;;;6250334;22;20155;-73
2023/04/02 08:59:02;;;;;;;2.10;1.97;;;6.60;99.90;7.40;101698.00;;;;6224061;22;20160;-72
2023/04/02 09:01:59;;;;;;;3.90;2.97;;;6.50;99.90;7.70;101701.00;;;;6273861;22;20179;-72
2023/04/02 09:04:30;;;;;;;3.87;2.53;;;6.60;99.90;7.60;101719.00;;;;6249113;22;20199;-73
2023/04/02 09:07:33;;;;;;;0.80;0.80;;;6.60;99.90;8.30;101723.00;;;;6224714;22;20164;-72
2023/04/02 09:10:11;;;;;;;0.40;0.40;;;6.60;99.90;8.20;101711.00;;;;6250362;22;20157;-72
2023/04/02 09:12:50;;;;;;;2.70;1.57;;;6.70;99.90;7.90;101715.00;;;;6248801;22;20147;-72
2023/04/02 09:15:28;;;;;;;2.73;2.53;;;6.70;99.90;8.40;101740.00;;;;6249747;22;20160;-73
2023/04/02 09:22:25;;;;;;;7.60;5.90;;;7.00;99.90;7.90;101756.00;;;;6276811;22;20603;-73
2023/04/02 09:25:28;;;;;;;4.93;4.50;;;6.80;99.90;8.60;101714.00;;;;6245979;22;20171;-72
2023/04/02 09:28:41;;;;;;;8.00;4.90;;;7.00;99.90;7.90;101743.00;;;;6249809;22;20145;-72
2023/04/02 09:32:08;;;;;;;1.93;1.83;;;7.00;99.90;8.20;101780.00;;;;6233474;22;20184;-72
2023/04/02 09:34:37;;;;;;;6.63;1.90;;;6.80;99.90;8.80;101778.00;;;;6228998;22;20161;-72
2023/04/02 09:37:39;;;;;;;7.67;2.93;;;7.00;99.90;8.20;101788.00;;;;6276848;22;20152;-72
2023/04/02 09:40:25;;;;;;;1.57;1.47;;;7.10;99.90;8.50;101790.00;;;;6250396;22;20142;-72
2023/04/02 09:43:27;;;;;;;1.87;1.57;;;7.00;99.90;9.00;101774.00;;;;6249994;22;20192;-73
2023/04/02 09:46:33;;;;;;;2.10;1.93;;;7.20;99.90;8.60;101800.00;;;;6244660;22;20177;-72
2023/04/02 09:49:00;;;;;;;4.50;2.63;;;7.10;99.90;9.30;101801.00;;;;6227320;22;20239;-72
2023/04/02 09:51:32;;;;;;;2.80;2.60;;;7.30;99.90;8.30;101813.00;;;;6249570;22;20550;-72
2023/04/02 09:54:12;;;;;;;3.57;3.27;;;7.20;99.90;8.50;101816.00;;;;6224980;22;20172;-72
2023/04/02 09:57:05;;;;;;;1.13;1.13;;;7.20;99.90;9.10;101845.00;;;;6224271;22;20168;-73
2023/04/02 09:59:31;;;;;;;1.67;0.70;;;7.40;99.90;9.50;101845.00;;;;6242194;22;20176;-73
2023/04/02 10:02:02;;;;;;;4.23;2.67;;;7.60;99.90;8.90;101857.00;;;;6249724;22;20264;-73
2023/04/02 10:04:47;;;;;;;1.63;1.03;;;7.60;99.90;8.30;101814.00;;;;6250555;22;20140;-73
2023/04/02 10:07:51;;;;;;;1.70;1.60;;;7.20;99.90;8.50;101848.00;;;;6249583;22;20151;-72
2023/04/02 10:10:17;;;;;;;2.20;2.00;;;7.10;99.90;8.90;101864.00;;;;6188150;23;20665;-72
2023/04/02 10:12:49;;;;;;;3.43;1.73;;;7.30;99.90;8.80;101846.00;;;;6265024;22;20232;-73
2023/04/02 10:15:30;;;;;;;1.67;1.50;;;7.30;99.90;9.10;101857.00;;;;6250284;22;20218;-72
2023/04/02 10:18:25;;;;;;;0.47;0.47;;;7.40;99.90;9.20;101835.00;;;;6226292;22;20145;-72
2023/04/02 10:20:53;;;;;;;3.97;3.13;;;7.40;99.90;8.90;101874.00;;;;6249988;22;20173;-73
2023/04/02 10:33:38;;;;;;;1.57;0.90;;;6.80;99.90;7.90;101862.00;;;;5070351;28;21077;-70
2023/04/02 10:36:45;;;;;;;2.63;2.43;;;6.90;99.90;8.00;101880.00;;;;5030707;28;20194;-69
2023/04/02 10:39:37;;;;;;;0.50;0.50;;;6.90;99.90;8.40;101885.00;;;;5044398;28;20530;-71
2023/04/02 10:42:29;;;;;;;2.83;2.63;;;7.10;99.90;8.70;101849.00;;;;5045867;28;20289;-70
2023/04/02 10:45:12;;;;;;;1.00;0.80;;;7.20;99.90;9.60;101907.00;;;;5066064;28;20188;-71
2023/04/02 10:47:59;;;;;;;2.63;1.27;;;7.40;99.90;8.80;101920.00;;;;5046673;28;20271;-71
2023/04/02 10:50:40;;;;;;;0.50;0.50;;;7.50;99.90;9.10;101870.00;;;;5039017;28;20631;-71
2023/04/02 10:53:18;;;;;;;1.40;1.20;;;7.30;99.90;9.00;101920.00;;;;5045782;28;20213;-71
2023/04/02 10:55:55;;;;;;;2.17;1.93;;;7.40;99.90;8.70;101920.00;;;;5048528;28;20178;-70
2023/04/02 10:58:28;;;;;;;5.60;3.13;;;7.40;99.90;8.40;101911.00;;;;5048725;28;20187;-71
2023/04/02 11:01:21;;;;;;;1.47;1.37;;;7.40;99.90;8.90;101910.00;;;;5049071;28;20183;-70
2023/04/02 11:04:05;;;;;;;2.80;1.77;;;7.30;99.90;9.20;101930.00;;;;5048549;28;20194;-70
2023/04/02 11:06:55;;;;;;;0.93;0.40;;;7.60;99.90;8.80;101933.00;;;;5048893;28;20183;-71
2023/04/02 11:13:01;;;;;;;2.23;2.07;;;7.60;99.90;9.20;101957.00;;;;5047860;28;20310;-71
2023/04/02 11:15:44;;;;;;;2.13;1.93;;;7.70;99.90;9.40;101958.00;;;;5047222;28;20218;-71
2023/04/02 11:19:09;;;;;;;1.50;1.40;;;7.70;99.90;9.80;101971.00;;;;5048082;28;20188;-70
2023/04/02 11:21:40;;;;;;;3.40;3.03;;;7.70;99.90;8.30;101974.00;;;;5048955;28;20179;-71
2023/04/02 11:25:00;;;;;;;1.33;1.33;;;7.60;99.90;9.70;101979.00;;;;5041088;28;20299;-71
2023/04/02 11:27:43;;;;;;;1.80;1.70;;;7.70;99.90;9.20;101927.00;;;;5047940;28;20190;-71
2023/04/02 11:30:20;;;;;;;0.77;0.77;;;7.70;99.90;9.40;101919.00;;;;5045064;28;20229;-71
2023/04/02 11:32:49;;;;;;;2.03;1.70;;;7.70;99.90;9.70;101973.00;;;;5034214;28;20222;-71
2023/04/02 11:35:30;;;;;;;1.90;1.80;;;7.80;99.90;9.00;101969.00;;;;5048178;28;20586;-70
2023/04/02 11:38:25;;;;;;;2.07;1.80;;;7.60;99.90;9.20;101982.00;;;;5049197;28;20261;-71
2023/04/02 11:40:58;;;;;;;1.20;1.20;;;7.60;99.90;9.40;101993.00;;;;5026656;28;20290;-71
2023/04/02 11:43:36;;;;;;;1.73;1.30;;;7.70;99.90;9.10;101932.00;;;;5031816;28;20208;-71
2023/04/02 11:46:29;;;;;;;1.03;1.03;;;7.70;99.90;9.10;102001.00;;;;5035996;28;20263;-71
2023/04/02 11:49:38;;;;;;;1.37;1.27;;;7.70;99.90;9.20;102002.00;;;;5034659;28;20184;-71
2023/04/02 11:52:40;;;;;;;3.80;2.10;;;7.60;99.90;8.40;102007.00;;;;5035291;28;20247;-71
2023/04/02 11:55:31;;;;;;;1.77;1.67;;;7.30;99.90;8.20;102011.00;;;;5034290;28;20707;-71
2023/04/02 11:58:16;;;;;;;0.93;0.93;;;7.20;99.90;8.70;102002.00;;;;5034382;28;20205;-71
2023/04/02 12:01:18;;;;;;;2.43;2.23;;;7.30;99.90;7.90;102011.00;;;;5028131;28;20677;-71
2023/04/02 12:04:33;;;;;;;6.93;3.13;;;7.20;99.90;8.00;102011.00;;;;5031281;28;20286;-70
2023/04/02 12:07:34;;;;;;;2.20;2.10;;;7.00;99.90;8.40;102023.00;;;;5025469;28;20179;-70
2023/04/02 12:10:47;;;;;;;3.23;2.63;;;7.20;99.90;8.00;101972.00;;;;5033981;28;20189;-70
2023/04/02 12:13:38;;;;;;;1.83;1.73;;;6.80;99.90;8.70;102031.00;;;;5013444;28;20226;-71
2023/04/02 12:16:06;;;;;;;1.23;1.13;;;7.10;99.90;8.70;102047.00;;;;5033353;28;20183;-71
2023/04/02 12:18:33;;;;;;;1.87;1.67;;;7.30;99.90;9.20;102054.00;;;;5034324;28;20633;-71
2023/04/02 12:21:07;;;;;;;3.23;2.23;;;7.50;99.90;8.30;101998.00;;;;5017594;28;20273;-70
2023/04/02 12:23:35;;;;;;;1.57;1.47;;;7.30;99.90;8.70;102013.00;;;;5035140;28;20186;-71
2023/04/02 12:26:21;;;;;;;2.00;1.10;;;7.40;99.90;8.70;102054.00;;;;5024578;28;20188;-70
2023/04/02 12:28:46;;;;;;;0.83;0.80;;;7.40;99.90;8.30;102055.00;;;;5023153;28;20189;-70
2023/04/02 12:31:33;;;;;;;1.17;0.97;;;7.20;99.90;9.10;102059.00;;;;5034801;28;20186;-71
2023/04/02 12:34:05;;;;;;;1.27;1.17;;;7.30;99.90;8.50;102020.00;;;;5033814;28;20191;-71
2023/04/02 12:36:33;;;;;;;2.13;2.00;;;7.20;99.90;8.30;102058.00;;;;5033249;28;20179;-71
2023/04/02 12:39:27;;;;;;;4.27;3.87;;;7.10;99.90;8.40;102073.00;;;;5033401;28;20179;-71
2023/04/02 12:41:56;;;;;;;2.37;2.17;;;7.20;99.90;8.30;102085.00;;;;5033209;28;20182;-71
2023/04/02 12:44:29;;;;;;;0.97;0.97;;;7.20;99.90;8.40;102009.00;;;;5032867;28;20252;-71
2023/04/02 12:46:56;;;;;;;0.40;0.40;;;7.20;99.90;9.00;102071.00;;;;5022653;28;20218;-71
2023/04/02 12:49:39;;;;;;;1.60;1.50;;;7.20;99.90;9.90;102067.00;;;;5026566;28;20186;-71
2023/04/02 12:52:09;;;;;;;0.87;0.87;;;7.70;99.90;9.40;102091.00;;;;5029693;28;20202;-71
2023/04/02 12:54:56;;;;;;;1.67;1.57;;;7.70;99.90;9.10;102101.00;;;;5032770;28;20587;-71
2023/04/02 12:57:25;;;;;;;1.90;1.80;;;7.60;99.90;9.00;102093.00;;;;5032920;28;20194;-71
2023/04/02 13:00:00;;;;;;;0.90;0.77;;;7.40;99.90;8.30;102093.00;;;;5031468;28;20179;-71
2023/04/02 13:02:43;;;;;;;0.97;0.97;;;7.30;99.90;9.10;102102.00;;;;5032575;28;20529;-71
2023/04/02 13:05:10;;;;;;;1.67;1.53;;;7.20;99.90;8.20;102088.00;;;;5033338;28;20224;-71
2023/04/02 13:08:04;;;;;;;4.27;3.87;;;7.10;99.90;8.30;102080.00;;;;5033819;28;20634;-71
2023/04/02 13:10:30;;;;;;;2.50;2.30;;;7.00;99.90;8.20;102083.00;;;;5033002;28;20654;-71
2023/04/02 13:12:59;;;;;;;0.77;0.77;;;7.00;99.90;8.20;102084.00;;;;5032896;28;20621;-71
2023/04/02 13:15:35;;;;;;;2.30;2.20;;;7.00;99.90;8.50;102098.00;;;;5018286;28;20187;-71
2023/04/02 13:18:11;;;;;;;1.93;1.50;;;7.10;99.90;8.40;102111.00;;;;5057478;28;20273;-71
2023/04/02 13:20:57;;;;;;;3.07;2.87;;;7.10;99.90;8.60;102114.00;;;;5026787;28;20205;-71
2023/04/02 13:23:37;;;;;;;1.90;1.77;;;7.20;99.90;9.00;102112.00;;;;5013043;28;20269;-71
2023/04/02 13:26:27;;;;;;;1.10;1.10;;;7.30;99.90;8.50;102106.00;;;;5033008;28;20189;-71
2023/04/02 13:29:24;;;;;;;3.27;2.97;;;7.20;99.90;7.60;102064.00;;;;5026563;28;20220;-71
2023/04/02 13:31:53;;;;;;;1.60;1.43;;;7.00;99.90;8.00;102117.00;;;;5018724;28;20549;-71
2023/04/02 13:34:19;;;;;;;3.50;3.20;;;6.90;99.90;7.90;102108.00;;;;5029307;28;20660;-71
2023/04/02 13:36:46;;;;;;;1.87;1.77;;;6.90;99.90;8.10;102117.00;;;;5033431;28;20193;-71
2023/04/02 13:39:12;;;;;;;1.40;1.17;;;6.90;99.90;8.50;102092.00;;;;5023100;28;20187;-71
2023/04/02 13:42:00;;;;;;;2.30;1.23;;;7.00;99.90;8.80;102141.00;;;;5029423;28;20253;-71
2023/04/02 13:44:31;;;;;;;0.87;0.83;;;7.30;99.90;8.70;102088.00;;;;5013028;28;20183;-71
2023/04/02 13:46:58;;;;;;;2.93;2.73;;;7.30;99.90;8.50;102154.00;;;;5025375;28;20213;-71
2023/04/02 13:49:26;;;;;;;2.53;2.43;;;7.30;99.90;8.60;102151.00;;;;5032397;28;20190;-71
2023/04/02 13:52:01;;;;;;;0.23;0.23;;;7.30;99.90;8.70;102122.00;;;;5022994;28;20263;-71
2023/04/02 13:54:52;;;;;;;1.53;1.20;;;7.30;99.90;8.60;102163.00;;;;5015162;28;20193;-71
2023/04/02 13:57:41;;;;;;;3.03;2.53;;;7.20;99.90;8.70;102159.00;;;;5032214;28;20234;-71
2023/04/02 14:00:09;;;;;;;1.63;1.53;;;7.30;99.90;9.10;102156.00;;;;5032682;28;20190;-71
2023/04/02 14:02:45;;;;;;;5.60;1.53;;;7.40;99.90;8.40;102151.00;;;;5015434;28;20183;-71
2023/04/02 14:05:34;;;;;;;0.53;0.53;;;7.40;99.90;9.40;102170.00;;;;5019302;28;20282;-71
2023/04/02 14:08:26;;;;;;;3.60;3.30;;;7.60;99.90;9.00;102184.00;;;;5023083;28;20183;-71
2023/04/02 14:11:38;;;;;;;2.57;2.40;;;7.70;99.90;9.60;102186.00;;;;5032811;28;20323;-71
2023/04/02 14:15:00;;;;;;;1.10;1.07;;;7.90;99.90;10.80;102194.00;;;;5032266;28;20185;-71
2023/04/02 14:17:50;;;;;;;2.00;1.90;;;8.20;99.90;8.60;102165.00;;;;5032167;28;20187;-71
2023/04/02 14:20:54;;;;;;;2.30;2.13;;;7.80;99.90;8.90;102167.00;;;;5029458;28;20222;-70
2023/04/02 14:23:36;;;;;;;5.70;2.70;;;7.60;99.90;8.30;102175.00;;;;5029603;28;20264;-70
2023/04/02 14:26:56;;;;;;;2.53;2.33;;;7.50;99.90;9.40;102184.00;;;;5025431;28;20180;-71
2023/04/02 14:29:50;;;;;;;0.40;0.40;;;7.60;99.90;9.70;102146.00;;;;5054998;28;20270;-71
2023/04/02 14:32:45;;;;;;;0.20;0.20;;;7.90;99.90;10.40;102206.00;;;;5031562;28;20206;-71
2023/04/02 14:35:24;;;;;;;0.40;0.40;;;8.30;99.90;9.80;102190.00;;;;5032445;28;20192;-71
2023/04/02 14:38:24;;;;;;;2.37;2.17;;;8.20;99.90;9.50;102140.00;;;;5032998;28;20188;-71
2023/04/02 14:41:03;;;;;;;0.47;0.47;;;8.10;99.90;9.70;102205.00;;;;5014486;28;20183;-71
2023/04/02 14:43:53;;;;;;;0.83;0.83;;;8.20;99.90;10.50;102170.00;;;;5063033;28;20286;-71
2023/04/02 14:46:25;;;;;;;0.73;0.73;;;8.30;99.90;10.50;102205.00;;;;5029643;28;20659;-71
2023/04/02 14:49:32;;;;;;;0.30;0.30;;;8.40;99.90;10.70;102158.00;;;;5031187;28;20705;-71
2023/04/02 14:52:16;;;;;;;0.20;0.20;;;8.50;99.90;9.80;102187.00;;;;5016904;28;20307;-70
2023/04/02 14:55:01;;;;;;;2.53;1.80;;;8.30;99.90;9.50;102213.00;;;;5024299;28;20200;-71
2023/04/02 14:57:47;;;;;;;0.80;0.80;;;8.30;99.90;10.00;102211.00;;;;5031577;28;20203;-71
2023/04/02 15:00:41;;;;;;;2.10;1.07;;;8.30;99.90;10.30;102206.00;;;;5028301;28;20191;-71
2023/04/02 15:03:29;;;;;;;1.57;1.47;;;8.40;99.90;10.10;102211.00;;;;5032612;28;20187;-71
2023/04/02 15:06:05;;;;;;;1.80;1.70;;;8.30;99.90;10.00;102214.00;;;;5050021;28;20186;-71
2023/04/02 15:08:43;;;;;;;2.10;1.30;;;8.40;99.90;9.80;102225.00;;;;5031262;28;20227;-71
2023/04/02 15:11:55;;;;;;;0.60;0.60;;;8.50;99.90;9.60;102218.00;;;;5026919;28;20665;-71
2023/04/02 15:14:38;;;;;;;0.80;0.80;;;8.30;99.90;9.80;102200.00;;;;5026295;28;20202;-70
2023/04/02 15:17:31;;;;;;;1.30;1.20;;;8.40;99.90;10.20;102218.00;;;;5027664;28;20179;-67
2023/04/02 15:21:01;;;;;;;0.30;0.30;;;8.60;99.90;11.00;102234.00;;;;5034269;28;20183;-68
2023/04/02 15:23:53;;;;;;;0.87;0.87;;;8.80;99.90;11.40;102257.00;;;;5018211;28;20557;-68
2023/04/02 15:27:12;;;;;;;0.60;0.60;;;9.10;99.90;10.40;102249.00;;;;5031863;28;20193;-68
2023/04/02 15:30:16;;;;;;;0.20;0.20;;;8.90;99.90;10.70;102238.00;;;;5023170;28;20274;-71
2023/04/02 15:32:43;;;;;;;0.60;0.60;;;8.60;99.90;9.80;102184.00;;;;5035474;28;20214;-71
2023/04/02 15:35:47;;;;;;;0.10;0.10;;;8.50;99.90;10.50;102245.00;;;;5034600;28;20246;-71
2023/04/02 15:38:46;;;;;;;1.40;0.80;;;8.70;99.90;10.50;102244.00;;;;5028836;28;20715;-71
2023/04/02 15:41:31;;;;;;;1.40;1.27;;;8.70;99.90;9.80;102246.00;;;;5026636;28;20193;-71
2023/04/02 15:43:59;;;;;;;0.40;0.40;;;8.60;99.90;10.50;102234.00;;;;5029448;28;20205;-71
2023/04/02 15:46:43;;;;;;;0.20;0.20;;;8.60;99.90;11.90;102208.00;;;;5029578;28;20187;-76
2023/04/02 15:49:45;;;;;;;0.53;0.53;;;9.20;99.90;11.50;102244.00;;;;5035631;28;20194;-72
2023/04/02 15:53:09;;;;;;;1.30;0.47;;;9.10;99.90;10.90;102262.00;;;;5034270;28;20215;-72
2023/04/02 15:56:19;;;;;;;0.30;0.30;;;9.10;99.90;11.80;102257.00;;;;5032790;28;20197;-72
2023/04/02 15:58:58;;;;;;;0.73;0.73;;;8.90;99.90;11.40;102262.00;;;;5033296;28;20289;-70
2023/04/02 16:01:49;;;;;;;0.47;0.47;;;9.20;99.90;12.00;102284.00;;;;5016604;28;20693;-71
2023/04/02 16:04:45;;;;;;;1.40;0.97;;;9.70;99.90;12.00;102298.00;;;;5032959;28;20191;-71
2023/04/02 16:07:26;;;;;;;0.30;0.30;;;9.90;99.90;12.10;102298.00;;;;5022674;28;20194;-71
2023/04/02 16:10:37;;;;;;;1.20;1.20;;;10.00;99.90;11.10;102320.00;;;;5047224;28;20182;-71
2023/04/02 16:13:35;;;;;;;0.20;0.20;;;9.90;99.90;12.90;102316.00;;;;5034094;28;20642;-71
2023/04/02 16:20:12;;;;;;;0.87;0.87;;;9.70;99.90;11.90;102338.00;;;;4991536;28;20720;-71
2023/04/02 16:23:03;;;;;;;0.40;0.40;;;9.70;99.90;12.70;102348.00;;;;4989750;28;20206;-71
2023/04/02 16:26:11;;;;;;;0.20;0.20;;;9.90;99.90;12.80;102314.00;;;;4970465;28;20655;-71
2023/04/02 16:28:52;;;;;;;0.50;0.50;;;9.90;99.90;12.60;102377.00;;;;5008984;28;20201;-68
2023/04/02 16:31:56;;;;;;;0.10;0.10;;;10.00;99.90;12.00;102337.00;;;;5032605;28;20211;-71
2023/04/02 16:34:36;;;;;;;0.10;0.10;;;9.60;99.90;12.70;102382.00;;;;5013497;28;20182;-71
2023/04/02 16:37:25;;;;;;;0.87;0.60;;;9.70;99.90;12.70;102366.00;;;;5033516;28;20602;-71
2023/04/02 16:40:32;;;;;;;0.30;0.30;;;9.70;99.90;14.00;102370.00;;;;5033498;28;20186;-71
2023/04/02 16:43:27;;;;;;;0.20;0.20;;;10.30;99.90;13.30;102391.00;;;;5027780;28;20678;-69
2023/04/02 16:46:28;;;;;;;0.70;0.70;;;10.30;99.90;11.40;102370.00;;;;5049723;28;20176;-70
2023/04/02 16:49:16;;;;;;;0.70;0.70;;;9.80;99.90;11.70;102403.00;;;;5044277;28;20204;-70
2023/04/02 16:52:37;;;;;;;0.40;0.40;;;9.40;99.90;12.90;102390.00;;;;5042942;28;20667;-70
2023/04/02 16:55:39;;;;;;;0.87;0.87;;;9.70;99.90;11.80;102399.00;;;;5041606;28;20243;-70
2023/04/02 16:58:31;;;;;;;2.37;1.10;;;9.70;99.90;11.10;102428.00;;;;5026392;28;20184;-70
2023/04/02 17:01:17;;;;;;;2.37;1.37;;;9.50;99.90;11.60;102410.00;;;;5049537;28;20200;-70
2023/04/02 17:04:31;;;;;;;0.90;0.90;;;9.30;99.90;10.70;102421.00;;;;5042044;28;20301;-71
2023/04/02 17:07:11;;;;;;;0.37;0.37;;;9.20;99.90;12.00;102411.00;;;;5053997;28;20220;-71
2023/04/02 17:09:44;;;;;;;2.93;2.00;;;9.40;99.90;11.90;102423.00;;;;5051040;28;20552;-71
2023/04/02 17:12:13;;;;;;;0.30;0.30;;;9.60;99.90;12.40;102427.00;;;;5029347;28;20198;-71
2023/04/02 17:15:31;;;;;;;0.87;0.87;;;9.70;99.90;12.70;102427.00;;;;5032738;28;20201;-71
2023/04/02 17:18:00;;;;;;;0.73;0.73;;;9.80;99.90;12.50;102441.00;;;;5016921;28;20186;-71
2023/04/02 17:20:28;;;;;;;0.60;0.60;;;9.90;99.90;12.70;102430.00;;;;5033135;28;20185;-71
2023/04/02 17:22:57;;;;;;;0.30;0.30;;;10.00;99.90;11.20;102451.00;;;;5032664;28;20865;-71
2023/04/02 17:25:32;;;;;;;0.20;0.20;;;9.50;99.90;12.80;102451.00;;;;5032776;28;20232;-71
2023/04/02 17:27:58;;;;;;;0.23;0.23;;;9.50;99.90;13.10;102458.00;;;;5032321;28;20650;-71
2023/04/02 17:30:51;;;;;;;1.33;1.23;;;9.80;99.90;13.40;102464.00;;;;5033086;28;20237;-71
2023/04/02 17:33:25;;;;;;;0.67;0.67;;;10.10;99.90;13.30;102472.00;;;;5032827;28;20221;-71
2023/04/02 17:36:45;;;;;;;0.10;0.10;;;10.10;99.90;13.50;102468.00;;;;5032666;28;20302;-71
2023/04/02 17:39:34;;;;;;;0.20;0.20;;;10.20;99.90;13.40;102481.00;;;;5026459;28;20207;-71
2023/04/02 17:42:39;;;;;;;0.30;0.30;;;10.10;99.90;13.70;102486.00;;;;5032962;28;20223;-71
2023/04/02 17:45:26;;;;;;;0.77;0.77;;;10.20;99.90;12.60;102510.00;;;;4998514;28;20217;-71
2023/04/02 17:48:28;;;;;;;0.20;0.20;;;9.90;99.90;12.10;102514.00;;;;5032287;28;20193;-71
2023/04/02 17:51:55;;;;;;;0.50;0.50;;;9.60;99.90;12.70;102475.00;;;;5031346;28;20236;-71
2023/04/02 17:54:50;;;;;;;0.20;0.20;;;9.60;99.90;12.60;102515.00;;;;5019794;28;20268;-71
2023/04/02 17:57:38;;;;;;;0.20;0.20;;;9.70;99.90;13.00;102520.00;;;;5031143;28;20204;-72
2023/04/02 18:00:12;;;;;;;0.53;0.53;;;9.80;99.90;12.10;102490.00;;;;5041949;28;20195;-71
2023/04/02 18:03:27;;;;;;;0.20;0.20;;;9.50;99.90;12.20;102542.00;;;;5042293;28;20228;-71
2023/04/02 18:06:20;;;;;;;0.20;0.20;;;9.30;99.90;12.50;102545.00;;;;5040277;28;20224;-71
2023/04/02 18:09:31;;;;;;;0.30;0.30;;;9.20;99.90;12.50;102551.00;;;;5038707;28;20200;-71
2023/04/02 18:12:38;;;;;;;0.20;0.20;;;9.30;99.90;12.20;102552.00;;;;5042129;28;20419;-71
2023/04/02 18:15:44;;;;;;;0.20;0.20;;;9.10;99.90;12.00;102553.00;;;;5041747;28;20646;-72
2023/04/02 18:18:39;;;;;;;0.20;0.20;;;9.10;99.90;11.90;102554.00;;;;5041502;28;20196;-71
2023/04/02 18:21:24;;;;;;;0.20;0.20;;;9.00;99.90;11.70;102558.00;;;;5056507;28;20233;-71
2023/04/02 18:24:20;;;;;;;0.20;0.20;;;8.90;99.90;11.50;102508.00;;;;5047923;28;20184;-71
2023/04/02 18:27:08;;;;;;;1.07;0.97;;;8.80;99.90;11.20;102554.00;;;;5042004;28;20178;-71
2023/04/02 18:30:05;;;;;;;0.40;0.40;;;8.80;99.90;11.20;102555.00;;;;5041738;28;20197;-71
2023/04/02 18:33:32;;;;;;;0.20;0.20;;;8.70;99.90;11.80;102543.00;;;;5040656;28;20253;-71
2023/04/02 18:36:22;;;;;;;0.20;0.20;;;8.60;99.90;12.00;102547.00;;;;5035611;28;20325;-72
2023/04/02 18:39:26;;;;;;;0.20;0.20;;;8.70;99.90;11.80;102558.00;;;;5042059;28;20241;-72
2023/04/02 18:42:10;;;;;;;0.67;0.67;;;8.70;99.90;11.40;102567.00;;;;5039556;28;20187;-71
2023/04/02 18:45:30;;;;;;;0.87;0.87;;;8.70;99.90;12.30;102553.00;;;;5042520;28;20277;-71
2023/04/02 18:48:50;;;;;;;0.20;0.20;;;8.80;99.90;11.60;102575.00;;;;5045541;28;20704;-71
2023/04/02 18:51:33;;;;;;;0.20;0.20;;;8.70;99.90;11.40;102561.00;;;;5021221;28;20264;-71
2023/04/02 18:54:31;;;;;;;0.20;0.20;;;8.40;99.90;11.20;102568.00;;;;5041992;28;20205;-71
2023/04/02 18:57:45;;;;;;;0.20;0.20;;;8.40;99.90;11.60;102568.00;;;;5044660;28;20198;-71
2023/04/02 19:00:53;;;;;;;0.20;0.20;;;8.30;99.90;11.90;102567.00;;;;5046325;28;20636;-71
2023/04/02 19:04:12;;;;;;;0.20;0.20;;;8.40;99.90;11.80;102551.00;;;;5044563;28;20218;-71
2023/04/02 19:10:52;;;;;;;0.20;0.20;;;8.30;99.90;11.80;102597.00;;;;5038501;28;20225;-71
2023/04/02 19:13:43;;;;;;;0.50;0.50;;;8.30;99.90;10.80;102603.00;;;;5043510;28;20614;-72
2023/04/02 19:16:18;;;;;;;0.30;0.30;;;8.00;99.90;11.60;102607.00;;;;5043281;28;20181;-71
2023/04/02 19:19:11;;;;;;;0.30;0.30;;;7.90;99.90;11.80;102559.00;;;;5045141;28;20209;-71
2023/04/02 19:22:17;;;;;;;0.20;0.20;;;8.30;99.90;10.90;102624.00;;;;5043813;28;20218;-71
2023/04/02 19:25:18;;;;;;;0.30;0.30;;;8.10;99.90;11.30;102618.00;;;;5059794;28;20667;-71
2023/04/02 19:28:04;;;;;;;0.30;0.30;;;7.90;99.90;10.90;102613.00;;;;5045796;28;20209;-71
2023/04/02 19:30:44;;;;;;;0.30;0.30;;;7.90;99.90;10.90;102603.00;;;;5043628;28;20190;-71
2023/04/02 19:33:57;;;;;;;1.13;1.13;;;7.70;99.90;10.70;102608.00;;;;5051424;28;20213;-71
2023/04/02 19:36:45;;;;;;;0.20;0.20;;;7.60;99.90;10.90;102605.00;;;;5032783;28;20198;-71
2023/04/02 19:39:54;;;;;;;0.20;0.20;;;7.60;99.90;11.00;102598.00;;;;5043739;28;20190;-71
2023/04/02 19:43:09;;;;;;;0.20;0.20;;;7.60;99.90;11.10;102607.00;;;;5044842;28;20216;-71
2023/04/02 19:45:47;;;;;;;6.90;0.67;;;7.60;99.90;9.60;102549.00;;;;5043605;28;20208;-68
2023/04/02 19:48:25;;;;;;;0.20;0.20;;;7.40;99.90;10.30;102525.00;;;;5043218;28;20259;-71
2023/04/02 19:51:34;;;;;;;0.77;0.77;;;7.20;99.90;10.50;102589.00;;;;5044328;28;20191;-70
2023/04/02 19:54:35;;;;;;;0.20;0.20;;;7.40;99.90;10.30;102586.00;;;;5044230;28;20196;-71
2023/04/02 19:57:49;;;;;;;0.50;0.50;;;7.30;99.90;10.70;102590.00;;;;5041270;28;20189;-70